Time,TemperatureF,DewpointF,PressureIn,WindDirection,WindDirectionDegrees,WindSpeedMPH,WindSpeedGustMPH,Humidity,HourlyPrecipIn,Conditions,Clouds,dailyrainin,SoftwareType,DateUTC
2013-02-02 00:03:00,36.1,32.1,29.69,WSW,258,6.9,6.9,85,0.00,FEW,,0.00,WeatherDisplay:10.37,2013-02-02 00:03:00,
2013-02-02 00:08:00,36.1,32.1,29.69,WSW,258,6.9,6.9,85,0.00,FEW,,0.00,WeatherDisplay:10.37,2013-02-02 00:08:00,
2013-02-02 00:13:00,36.1,32.1,29.69,WSW,258,6.9,6.9,85,0.00,FEW,,0.00,WeatherDisplay:10.37,2013-02-02 00:13:00,
2013-02-02 00:18:00,35.8,31.7,29.69,NW,325,5.4,5.4,85,0.00,FEW,,0.00,WeatherDisplay:10.37,2013-02-02 00:18:00,
2013-02-02 00:23:00,35.8,32.0,29.69,West,280,5.8,5.8,86,0.00,FEW,,0.00,WeatherDisplay:10.37,2013-02-02 00:23:00,
2013-02-02 00:28:00,35.8,32.0,29.69,WSW,258,6.9,6.9,86,0.00,FEW,,0.00,WeatherDisplay:10.37,2013-02-02 00:28:00,
2013-02-02 00:33:00,35.6,31.8,29.69,West,280,4.8,4.8,86,0.00,FEW,,0.00,WeatherDisplay:10.37,2013-02-02 00:33:00,
2013-02-02 00:38:00,35.6,31.8,29.69,ESE,122,6.9,6.9,86,0.00,FEW,,0.00,WeatherDisplay:10.37,2013-02-02 00:38:00,
2013-02-02 00:43:00,35.8,32.0,29.69,WSW,258,5.8,5.8,86,0.00,FEW,,0.00,WeatherDisplay:10.37,2013-02-02 00:43:00,
2013-02-02 00:48:00,35.8,32.0,29.69,WSW,258,7.1,7.1,86,0.00,FEW,,0.00,WeatherDisplay:10.37,2013-02-02 00:48:00,
2013-02-02 00:53:00,35.6,31.8,29.69,WSW,258,5.9,5.9,86,0.00,FEW,,0.00,WeatherDisplay:10.37,2013-02-02 00:53:00,
2013-02-02 00:58:00,35.6,31.8,29.69,WSW,258,5.8,5.8,86,0.00,FEW,,0.00,WeatherDisplay:10.37,2013-02-02 00:58:00,
2013-02-02 01:03:00,35.6,31.8,29.69,WSW,258,5.8,5.8,86,0.00,FEW,,0.00,WeatherDisplay:10.37,2013-02-02 01:03:00,
2013-02-02 01:08:00,35.8,32.0,29.69,NW,325,5.8,5.8,86,0.00,FEW,,0.00,WeatherDisplay:10.37,2013-02-02 01:08:00,
2013-02-02 01:13:00,35.6,31.8,29.69,WSW,258,5.1,5.1,86,0.00,FEW,,0.00,WeatherDisplay:10.37,2013-02-02 01:13:00,
2013-02-02 01:18:00,35.6,31.8,29.69,WSW,258,6.9,6.9,86,0.00,FEW,,0.00,WeatherDisplay:10.37,2013-02-02 01:18:00,
2013-02-02 01:23:00,35.8,32.0,29.69,WNW,302,9.2,9.2,86,0.00,FEW,,0.00,WeatherDisplay:10.37,2013-02-02 01:23:00,
2013-02-02 01:28:00,35.6,31.8,29.69,WSW,258,4.8,4.8,86,0.00,FEW,,0.00,WeatherDisplay:10.37,2013-02-02 01:28:00,
2013-02-02 01:33:00,35.6,32.1,29.69,WNW,302,5.8,5.8,87,0.00,FEW,,0.00,WeatherDisplay:10.37,2013-02-02 01:33:00,
2013-02-02 01:38:00,35.8,32.3,29.69,West,280,10.4,10.4,87,0.00,FEW,,0.00,WeatherDisplay:10.37,2013-02-02 01:38:00,
2013-02-02 01:43:00,36.0,32.5,29.69,West,280,5.8,5.8,87,0.00,FEW,,0.00,WeatherDisplay:10.37,2013-02-02 01:43:00,
2013-02-02 01:48:00,35.8,32.3,29.69,WNW,302,6.9,6.9,87,0.00,FEW,,0.00,WeatherDisplay:10.37,2013-02-02 01:48:00,
2013-02-02 01:53:00,35.8,32.3,29.69,NE,55,6.9,6.9,87,0.00,FEW,,0.00,WeatherDisplay:10.37,2013-02-02 01:53:00,
2013-02-02 01:58:00,35.8,32.3,29.69,West,280,8.1,8.1,87,0.00,FEW,,0.00,WeatherDisplay:10.37,2013-02-02 01:58:00,
2013-02-02 02:03:00,35.8,32.3,29.69,SE,145,3.5,4.2,87,0.00,FEW,,0.00,WeatherDisplay:10.37,2013-02-02 02:03:00,
2013-02-02 02:08:00,35.6,32.1,29.69,West,280,8.1,8.1,87,0.00,FEW,,0.00,WeatherDisplay:10.37,2013-02-02 02:08:00,
2013-02-02 02:13:00,35.6,32.1,29.69,WSW,258,4.6,4.6,87,0.00,FEW,,0.00,WeatherDisplay:10.37,2013-02-02 02:13:00,
2013-02-02 02:18:00,35.6,32.1,29.69,WSW,258,4.6,4.6,87,0.00,FEW,,0.00,WeatherDisplay:10.37,2013-02-02 02:18:00,
2013-02-02 02:23:00,35.6,32.1,29.69,WSW,258,5.8,5.8,87,0.00,FEW,,0.00,WeatherDisplay:10.37,2013-02-02 02:23:00,
2013-02-02 02:28:00,35.4,32.2,29.69,WSW,258,9.2,9.2,88,0.00,FEW,,0.00,WeatherDisplay:10.37,2013-02-02 02:28:00,
2013-02-02 02:33:00,35.6,32.4,29.69,WSW,258,6.9,6.9,88,0.00,FEW,,0.00,WeatherDisplay:10.37,2013-02-02 02:33:00,
2013-02-02 02:38:00,35.6,32.4,29.69,WSW,258,5.8,5.8,88,0.00,FEW,,0.00,WeatherDisplay:10.37,2013-02-02 02:38:00,
2013-02-02 02:43:00,35.4,32.2,29.69,West,280,3.5,3.5,88,0.00,FEW,,0.00,WeatherDisplay:10.37,2013-02-02 02:43:00,
2013-02-02 02:48:00,35.2,32.0,29.69,WSW,258,5.8,5.8,88,0.00,FEW,,0.00,WeatherDisplay:10.37,2013-02-02 02:48:00,
2013-02-02 02:53:00,35.1,31.9,29.69,South,190,1.1,3.5,88,0.00,FEW,,0.00,WeatherDisplay:10.37,2013-02-02 02:53:00,
2013-02-02 02:58:00,35.1,31.9,29.69,West,280,6.9,6.9,88,0.00,FEW,,0.00,WeatherDisplay:10.37,2013-02-02 02:58:00,
2013-02-02 03:03:00,35.1,31.9,29.69,West,280,4.6,4.6,88,0.00,FEW,,0.00,WeatherDisplay:10.37,2013-02-02 03:03:00,
2013-02-02 03:08:00,35.1,31.9,29.69,West,280,4.6,4.6,88,0.00,FEW,,0.00,WeatherDisplay:10.37,2013-02-02 03:08:00,
2013-02-02 03:13:00,35.1,31.9,29.69,West,280,4.6,4.6,88,0.00,FEW,,0.00,WeatherDisplay:10.37,2013-02-02 03:13:00,
2013-02-02 03:18:00,35.1,31.9,29.69,WSW,258,5.8,5.8,88,0.00,FEW,,0.00,WeatherDisplay:10.37,2013-02-02 03:18:00,
2013-02-02 03:23:00,34.9,31.7,29.69,WSW,258,3.5,3.5,88,0.00,FEW,,0.00,WeatherDisplay:10.37,2013-02-02 03:23:00,
2013-02-02 03:28:00,34.9,31.7,29.69,WSW,258,6.9,6.9,88,0.00,FEW,,0.00,WeatherDisplay:10.37,2013-02-02 03:28:00,
2013-02-02 03:33:00,34.9,31.7,29.69,West,280,4.6,4.6,88,0.00,FEW,,0.00,WeatherDisplay:10.37,2013-02-02 03:33:00,
2013-02-02 03:38:00,34.9,32.0,29.69,West,280,3.7,3.7,89,0.00,FEW,,0.00,WeatherDisplay:10.37,2013-02-02 03:38:00,
2013-02-02 03:43:00,34.9,32.0,29.69,WSW,258,4.6,4.6,89,0.00,FEW,,0.00,WeatherDisplay:10.37,2013-02-02 03:43:00,
2013-02-02 03:48:00,34.7,31.8,29.69,WSW,258,8.2,8.2,89,0.00,FEW,,0.00,WeatherDisplay:10.37,2013-02-02 03:48:00,
2013-02-02 03:53:00,34.7,31.8,29.69,WSW,258,5.8,5.8,89,0.00,FEW,,0.00,WeatherDisplay:10.37,2013-02-02 03:53:00,
2013-02-02 03:58:00,34.7,31.8,29.69,WSW,258,3.5,3.5,89,0.00,FEW,,0.00,WeatherDisplay:10.37,2013-02-02 03:58:00,
2013-02-02 04:03:00,34.7,31.8,29.69,WSW,258,3.7,3.7,89,0.00,FEW,,0.00,WeatherDisplay:10.37,2013-02-02 04:03:00,
2013-02-02 04:08:00,34.9,32.0,29.69,WSW,258,4.6,4.6,89,0.00,FEW,,0.00,WeatherDisplay:10.37,2013-02-02 04:08:00,
2013-02-02 04:13:00,34.7,31.8,29.69,West,280,5.8,5.8,89,0.00,FEW,,0.00,WeatherDisplay:10.37,2013-02-02 04:13:00,
2013-02-02 04:18:00,34.7,31.8,29.69,West,280,6.9,6.9,89,0.00,FEW,,0.00,WeatherDisplay:10.37,2013-02-02 04:18:00,
2013-02-02 04:23:00,34.7,31.8,29.69,WSW,258,4.6,4.6,89,0.00,FEW,,0.00,WeatherDisplay:10.37,2013-02-02 04:23:00,
2013-02-02 04:28:00,34.7,31.8,29.69,West,280,6.9,6.9,89,0.00,FEW,,0.00,WeatherDisplay:10.37,2013-02-02 04:28:00,
2013-02-02 04:33:00,34.7,31.8,29.69,WNW,302,4.8,4.8,89,0.00,FEW,,0.00,WeatherDisplay:10.37,2013-02-02 04:33:00,
2013-02-02 04:38:00,34.7,32.1,29.69,West,280,4.6,4.6,90,0.00,FEW,,0.00,WeatherDisplay:10.37,2013-02-02 04:38:00,
2013-02-02 04:43:00,34.7,32.1,29.69,WSW,258,3.5,3.5,90,0.00,FEW,,0.00,WeatherDisplay:10.37,2013-02-02 04:43:00,
2013-02-02 04:48:00,34.5,31.9,29.69,WSW,258,5.8,5.8,90,0.00,FEW,,0.00,WeatherDisplay:10.37,2013-02-02 04:48:00,
2013-02-02 04:53:00,34.5,31.9,29.69,WSW,258,2.3,2.8,90,0.00,FEW,,0.00,WeatherDisplay:10.37,2013-02-02 04:53:00,
2013-02-02 04:58:00,34.2,31.5,29.69,West,280,2.8,2.8,90,0.00,FEW,,0.00,WeatherDisplay:10.37,2013-02-02 04:58:00,
2013-02-02 05:01:00,34.2,31.5,29.69,West,280,2.3,2.3,90,0.00,FEW,,0.00,WeatherDisplay:10.37,2013-02-02 05:01:00,
2013-02-02 05:06:00,34.3,31.7,29.69,SE,145,4.6,4.6,90,0.00,FEW,,0.00,WeatherDisplay:10.37,2013-02-02 05:06:00,
2013-02-02 05:11:00,34.3,31.7,29.69,South,190,3.9,3.9,90,0.00,FEW,,0.00,WeatherDisplay:10.37,2013-02-02 05:11:00,
2013-02-02 05:16:00,34.2,31.5,29.69,WSW,258,3.5,3.5,90,0.00,FEW,,0.00,WeatherDisplay:10.37,2013-02-02 05:16:00,
2013-02-02 05:21:00,34.2,31.5,29.69,WSW,258,3.6,3.6,90,0.00,FEW,,0.00,WeatherDisplay:10.37,2013-02-02 05:21:00,
2013-02-02 05:26:00,34.0,31.6,29.69,ESE,122,4.6,4.6,91,0.00,FEW,,0.00,WeatherDisplay:10.37,2013-02-02 05:26:00,
2013-02-02 05:31:00,34.2,31.8,29.69,West,280,3.5,3.5,91,0.00,FEW,,0.00,WeatherDisplay:10.37,2013-02-02 05:31:00,
2013-02-02 05:36:00,34.2,31.8,29.69,WSW,258,6.9,6.9,91,0.00,FEW,,0.00,WeatherDisplay:10.37,2013-02-02 05:36:00,
2013-02-02 05:41:00,34.3,32.0,29.69,West,280,4.6,4.6,91,0.00,FEW,,0.00,WeatherDisplay:10.37,2013-02-02 05:41:00,
2013-02-02 05:46:00,34.2,31.8,29.69,WSW,258,5.8,5.8,91,0.00,FEW,,0.00,WeatherDisplay:10.37,2013-02-02 05:46:00,
2013-02-02 05:51:00,34.3,32.0,29.69,West,280,6.9,6.9,91,0.00,FEW,,0.00,WeatherDisplay:10.37,2013-02-02 05:51:00,
2013-02-02 05:56:00,34.7,32.3,29.69,WSW,258,4.6,4.6,91,0.00,FEW,,0.00,WeatherDisplay:10.37,2013-02-02 05:56:00,
2013-02-02 06:01:00,34.3,32.0,29.69,WNW,302,3.5,3.5,91,0.00,FEW,,0.00,WeatherDisplay:10.37,2013-02-02 06:01:00,
2013-02-02 06:06:00,34.3,31.7,29.69,WSW,258,2.3,2.8,90,0.00,FEW,,0.00,WeatherDisplay:10.37,2013-02-02 06:06:00,
2013-02-02 06:11:00,34.3,31.7,29.69,WSW,258,2.3,2.8,90,0.00,FEW,,0.00,WeatherDisplay:10.37,2013-02-02 06:11:00,
2013-02-02 06:16:00,34.7,32.3,29.69,WSW,258,8.1,8.1,91,0.00,FEW,,0.00,WeatherDisplay:10.37,2013-02-02 06:16:00,
2013-02-02 06:21:00,34.5,32.2,29.69,ESE,122,5.8,5.8,91,0.00,FEW,,0.00,WeatherDisplay:10.37,2013-02-02 06:21:00,
2013-02-02 06:26:00,34.7,32.3,29.69,West,280,8.1,8.1,91,0.00,FEW,,0.00,WeatherDisplay:10.37,2013-02-02 06:26:00,
2013-02-02 06:31:00,34.5,31.9,29.69,WNW,302,4.6,4.6,90,0.00,FEW,,0.00,WeatherDisplay:10.37,2013-02-02 06:31:00,
2013-02-02 06:36:00,34.7,32.1,29.69,West,280,6.9,6.9,90,0.00,FEW,,0.00,WeatherDisplay:10.37,2013-02-02 06:36:00,
2013-02-02 06:41:00,34.7,32.1,29.69,WNW,302,6.9,6.9,90,0.00,FEW,,0.00,WeatherDisplay:10.37,2013-02-02 06:41:00,
2013-02-02 06:46:00,34.5,31.9,29.69,NW,325,2.3,3.4,90,0.00,FEW,,0.00,WeatherDisplay:10.37,2013-02-02 06:46:00,
2013-02-02 06:51:00,34.2,31.5,29.69,West,280,5.8,5.8,90,0.00,FEW,,0.00,WeatherDisplay:10.37,2013-02-02 06:51:00,
2013-02-02 06:56:00,34.3,32.0,29.69,WSW,258,3.5,3.5,91,0.00,FEW,,0.00,WeatherDisplay:10.37,2013-02-02 06:56:00,
2013-02-02 07:01:00,34.3,32.0,29.69,West,280,3.5,3.5,91,0.00,FEW,,0.00,WeatherDisplay:10.37,2013-02-02 07:01:00,
2013-02-02 07:06:00,34.2,31.8,29.69,SE,145,5.8,5.8,91,0.00,FEW,,0.00,WeatherDisplay:10.37,2013-02-02 07:06:00,
2013-02-02 07:11:00,34.2,31.8,29.69,West,280,5.8,5.8,91,0.00,FEW,,0.00,WeatherDisplay:10.37,2013-02-02 07:11:00,
2013-02-02 07:16:00,34.2,31.8,29.69,West,280,6.9,6.9,91,0.00,FEW,,0.00,WeatherDisplay:10.37,2013-02-02 07:16:00,
2013-02-02 07:21:00,34.3,32.0,29.69,West,280,2.3,4.1,91,0.00,FEW,,0.00,WeatherDisplay:10.37,2013-02-02 07:21:00,
2013-02-02 07:26:00,34.3,32.0,29.69,NW,325,3.5,4.0,91,0.00,FEW,,0.00,WeatherDisplay:10.37,2013-02-02 07:26:00,
2013-02-02 07:31:00,34.2,31.8,29.69,WSW,258,5.8,5.8,91,0.00,FEW,,0.00,WeatherDisplay:10.37,2013-02-02 07:31:00,
2013-02-02 07:36:00,34.2,31.8,29.69,WNW,302,4.6,4.6,91,0.00,FEW,,0.00,WeatherDisplay:10.37,2013-02-02 07:36:00,
2013-02-02 07:41:00,34.0,31.6,29.69,WNW,302,4.6,4.6,91,0.00,FEW,,0.00,WeatherDisplay:10.37,2013-02-02 07:41:00,
2013-02-02 07:46:00,34.0,31.6,29.69,West,280,3.5,3.5,91,0.00,FEW,,0.00,WeatherDisplay:10.37,2013-02-02 07:46:00,
2013-02-02 07:51:00,34.0,31.6,29.69,West,280,3.5,3.5,91,0.00,FEW,,0.00,WeatherDisplay:10.37,2013-02-02 07:51:00,
2013-02-02 07:56:00,33.6,31.3,29.69,West,280,3.5,3.5,91,0.00,FEW,,0.00,WeatherDisplay:10.37,2013-02-02 07:56:00,
2013-02-02 08:01:00,33.6,31.5,29.69,WSW,258,2.3,2.3,92,0.00,FEW,,0.00,WeatherDisplay:10.37,2013-02-02 08:01:00,
2013-02-02 08:06:00,33.6,31.5,29.69,SE,145,3.1,3.1,92,0.00,FEW,,0.00,WeatherDisplay:10.37,2013-02-02 08:06:00,
2013-02-02 08:11:00,33.6,31.5,29.69,West,280,3.7,3.7,92,0.00,FEW,,0.00,WeatherDisplay:10.37,2013-02-02 08:11:00,
2013-02-02 08:16:00,34.0,31.9,29.69,West,280,7.4,7.4,92,0.00,FEW,,0.00,WeatherDisplay:10.37,2013-02-02 08:16:00,
2013-02-02 08:22:00,34.2,32.1,29.69,West,280,4.6,4.6,92,0.00,FEW,,0.00,WeatherDisplay:10.37,2013-02-02 08:22:00,
2013-02-02 08:27:00,34.2,32.1,29.69,West,280,6.2,6.2,92,0.00,FEW,,0.00,WeatherDisplay:10.37,2013-02-02 08:27:00,
2013-02-02 08:32:00,34.3,32.3,29.69,NW,325,7.4,7.4,92,0.00,FEW,,0.00,WeatherDisplay:10.37,2013-02-02 08:32:00,
2013-02-02 08:37:00,34.3,32.3,29.69,West,280,4.6,4.6,92,0.00,FEW,,0.00,WeatherDisplay:10.37,2013-02-02 08:37:00,
2013-02-02 08:42:00,34.2,31.8,29.69,West,280,6.9,6.9,91,0.00,FEW,,0.00,WeatherDisplay:10.37,2013-02-02 08:42:00,
2013-02-02 08:47:00,34.2,31.8,29.69,NW,325,8.1,8.1,91,0.00,FEW,,0.00,WeatherDisplay:10.37,2013-02-02 08:47:00,
2013-02-02 08:52:00,34.2,31.8,29.69,ENE,78,3.5,3.5,91,0.00,FEW,,0.00,WeatherDisplay:10.37,2013-02-02 08:52:00,
2013-02-02 08:57:00,34.3,32.0,29.69,West,280,3.5,3.5,91,0.00,FEW,,0.00,WeatherDisplay:10.37,2013-02-02 08:57:00,
2013-02-02 09:02:00,34.5,32.2,29.69,West,280,4.6,4.6,91,0.00,FEW,,0.00,WeatherDisplay:10.37,2013-02-02 09:02:00,
2013-02-02 09:07:00,34.7,32.3,29.69,WSW,258,6.9,6.9,91,0.00,FEW,,0.00,WeatherDisplay:10.37,2013-02-02 09:07:00,
2013-02-02 09:12:00,34.9,32.5,29.69,West,280,6.9,6.9,91,0.00,FEW,,0.00,WeatherDisplay:10.37,2013-02-02 09:12:00,
2013-02-02 09:17:00,35.1,32.7,29.69,West,280,5.8,5.8,91,0.00,FEW,,0.00,WeatherDisplay:10.37,2013-02-02 09:17:00,
2013-02-02 09:22:00,35.4,33.1,29.69,WSW,258,5.2,5.2,91,0.00,FEW,,0.00,WeatherDisplay:10.37,2013-02-02 09:22:00,
2013-02-02 09:27:00,35.4,33.1,29.69,WSW,258,4.6,4.6,91,0.00,FEW,,0.00,WeatherDisplay:10.37,2013-02-02 09:27:00,
2013-02-02 09:32:00,35.6,33.0,29.69,NW,325,3.5,3.9,90,0.00,FEW,,0.00,WeatherDisplay:10.37,2013-02-02 09:32:00,
2013-02-02 09:37:00,35.8,33.4,29.69,WSW,258,9.3,9.3,91,0.00,FEW,,0.00,WeatherDisplay:10.37,2013-02-02 09:37:00,
2013-02-02 09:42:00,36.1,33.5,29.69,WSW,258,3.5,3.5,90,0.00,FEW,,0.00,WeatherDisplay:10.37,2013-02-02 09:42:00,
2013-02-02 09:47:00,36.1,33.5,29.69,WSW,258,2.8,3.0,90,0.00,FEW,,0.00,WeatherDisplay:10.37,2013-02-02 09:47:00,
2013-02-02 09:52:00,36.3,33.4,29.69,NW,325,4.6,4.6,89,0.00,FEW,,0.00,WeatherDisplay:10.37,2013-02-02 09:52:00,
2013-02-02 09:57:00,36.3,33.4,29.69,WSW,258,4.6,4.6,89,0.00,FEW,,0.00,WeatherDisplay:10.37,2013-02-02 09:57:00,
2013-02-02 10:02:00,36.9,33.9,29.69,WNW,302,4.6,4.6,89,0.00,FEW,,0.00,WeatherDisplay:10.37,2013-02-02 10:02:00,
2013-02-02 10:07:00,36.9,33.9,29.69,WSW,258,2.4,2.8,89,0.00,FEW,,0.00,WeatherDisplay:10.37,2013-02-02 10:07:00,
2013-02-02 10:12:00,37.2,34.3,29.69,West,280,5.8,5.8,89,0.00,FEW,,0.00,WeatherDisplay:10.37,2013-02-02 10:12:00,
2013-02-02 10:17:00,37.2,34.0,29.69,West,280,3.5,3.5,88,0.00,FEW,,0.00,WeatherDisplay:10.37,2013-02-02 10:17:00,
2013-02-02 10:22:00,37.6,34.3,29.69,WSW,258,5.8,5.8,88,0.00,FEW,,0.00,WeatherDisplay:10.37,2013-02-02 10:22:00,
2013-02-02 10:27:00,37.4,34.2,29.69,West,280,5.8,5.8,88,0.00,FEW,,0.00,WeatherDisplay:10.37,2013-02-02 10:27:00,
2013-02-02 10:32:00,37.8,34.2,29.69,West,280,3.5,3.5,87,0.00,FEW,,0.00,WeatherDisplay:10.37,2013-02-02 10:32:00,
2013-02-02 10:37:00,38.1,34.6,29.69,WSW,258,5.8,5.8,87,0.00,FEW,,0.00,WeatherDisplay:10.37,2013-02-02 10:37:00,
2013-02-02 10:42:00,38.3,34.8,29.69,West,280,3.7,3.7,87,0.00,FEW,,0.00,WeatherDisplay:10.37,2013-02-02 10:42:00,
2013-02-02 10:47:00,38.7,34.8,29.69,NW,325,6.9,6.9,86,0.00,FEW,,0.00,WeatherDisplay:10.37,2013-02-02 10:47:00,
2013-02-02 10:52:00,39.0,35.2,29.69,West,280,8.1,8.1,86,0.00,FEW,,0.00,WeatherDisplay:10.37,2013-02-02 10:52:00,
2013-02-02 10:57:00,39.0,34.9,29.69,WSW,258,4.6,4.6,85,0.00,FEW,,0.00,WeatherDisplay:10.37,2013-02-02 10:57:00,
2013-02-02 11:02:00,39.2,35.1,29.69,WNW,302,4.6,4.6,85,0.00,SCT,FEW,0.00,WeatherDisplay:10.37,2013-02-02 11:02:00,
2013-02-02 11:07:00,39.7,35.6,29.69,WNW,302,4.0,4.0,85,0.00,SCT,FEW,0.00,WeatherDisplay:10.37,2013-02-02 11:07:00,
2013-02-02 11:12:00,39.9,35.5,29.69,ESE,122,5.8,5.8,84,0.00,SCT,FEW,0.00,WeatherDisplay:10.37,2013-02-02 11:12:00,
2013-02-02 11:17:00,39.9,35.5,29.69,West,280,5.8,5.8,84,0.00,SCT,FEW,0.00,WeatherDisplay:10.37,2013-02-02 11:17:00,
2013-02-02 11:22:00,40.1,35.7,29.69,West,280,4.6,4.6,84,0.00,SCT,FEW,0.00,WeatherDisplay:10.37,2013-02-02 11:22:00,
2013-02-02 11:27:00,40.5,35.7,29.69,NW,325,1.1,2.3,83,0.00,SCT,FEW,0.00,WeatherDisplay:10.37,2013-02-02 11:27:00,
2013-02-02 11:32:00,40.6,35.9,29.69,WSW,258,2.3,2.7,83,0.00,SCT,FEW,0.00,WeatherDisplay:10.37,2013-02-02 11:32:00,
2013-02-02 11:37:00,40.6,35.9,29.69,West,280,5.8,5.8,83,0.00,SCT,FEW,0.00,WeatherDisplay:10.37,2013-02-02 11:37:00,
2013-02-02 11:42:00,41.0,35.6,29.69,WSW,258,4.6,4.6,81,0.00,SCT,FEW,0.00,WeatherDisplay:10.37,2013-02-02 11:42:00,
2013-02-02 11:47:00,41.2,35.8,29.69,NW,325,5.8,5.8,81,0.00,SCT,FEW,0.00,WeatherDisplay:10.37,2013-02-02 11:47:00,
2013-02-02 11:52:00,41.2,35.5,29.69,WNW,302,6.9,6.9,80,0.00,SCT,FEW,0.00,WeatherDisplay:10.37,2013-02-02 11:52:00,
2013-02-02 11:57:00,41.5,35.8,29.69,NW,325,6.9,6.9,80,0.00,SCT,FEW,0.00,WeatherDisplay:10.37,2013-02-02 11:57:00,
2013-02-02 12:02:00,41.5,35.8,29.69,WNW,302,9.2,9.2,80,0.00,SCT,FEW,0.00,WeatherDisplay:10.37,2013-02-02 12:02:00,
2013-02-02 12:07:00,41.5,35.8,29.69,WNW,302,9.4,9.4,80,0.00,SCT,FEW,0.00,WeatherDisplay:10.37,2013-02-02 12:07:00,
2013-02-02 12:12:00,41.5,35.8,29.69,WSW,258,9.2,9.2,80,0.00,SCT,FEW,0.00,WeatherDisplay:10.37,2013-02-02 12:12:00,
2013-02-02 12:17:00,42.3,36.5,29.69,West,280,6.3,6.3,80,0.00,SCT,FEW,0.00,WeatherDisplay:10.37,2013-02-02 12:17:00,
2013-02-02 12:22:00,42.6,36.6,29.69,WSW,258,4.6,4.6,79,0.00,SCT,FEW,0.00,WeatherDisplay:10.37,2013-02-02 12:22:00,
2013-02-02 12:27:00,42.6,36.2,29.69,WNW,302,5.8,5.8,78,0.00,SCT,FEW,0.00,WeatherDisplay:10.37,2013-02-02 12:27:00,
2013-02-02 12:32:00,42.8,36.4,29.69,NW,325,10.4,10.4,78,0.00,SCT,FEW,0.00,WeatherDisplay:10.37,2013-02-02 12:32:00,
2013-02-02 12:37:00,43.0,36.3,29.69,WSW,258,4.6,4.6,77,0.00,SCT,FEW,0.00,WeatherDisplay:10.37,2013-02-02 12:37:00,
2013-02-02 12:42:00,43.0,35.9,29.69,WSW,258,8.1,8.1,76,0.00,SCT,FEW,0.00,WeatherDisplay:10.37,2013-02-02 12:42:00,
2013-02-02 12:47:00,43.3,36.3,29.69,NW,325,5.2,5.2,76,0.00,SCT,FEW,0.00,WeatherDisplay:10.37,2013-02-02 12:47:00,
2013-02-02 12:52:00,43.3,36.6,29.69,WSW,258,4.6,4.6,77,0.00,SCT,FEW,0.00,WeatherDisplay:10.37,2013-02-02 12:52:00,
2013-02-02 12:57:00,43.5,36.1,29.69,NW,325,6.9,6.9,75,0.00,SCT,FEW,0.00,WeatherDisplay:10.37,2013-02-02 12:57:00,
2013-02-02 13:02:00,43.7,36.3,29.69,West,280,4.6,4.6,75,0.00,BKN,FEW,0.00,WeatherDisplay:10.37,2013-02-02 13:02:00,
2013-02-02 13:07:00,43.5,36.1,29.69,NW,325,8.7,8.7,75,0.00,BKN,FEW,0.00,WeatherDisplay:10.37,2013-02-02 13:07:00,
2013-02-02 13:12:00,43.5,36.1,29.69,West,280,6.9,6.9,75,0.00,BKN,FEW,0.00,WeatherDisplay:10.37,2013-02-02 13:12:00,
2013-02-02 13:17:00,44.1,36.6,29.69,WSW,258,6.9,6.9,75,0.00,BKN,FEW,0.00,WeatherDisplay:10.37,2013-02-02 13:17:00,
2013-02-02 13:22:00,44.1,36.6,29.69,WSW,258,6.2,6.2,75,0.00,BKN,FEW,0.00,WeatherDisplay:10.37,2013-02-02 13:22:00,
2013-02-02 13:27:00,43.9,36.1,29.69,WSW,258,6.3,6.3,74,0.00,BKN,FEW,0.00,WeatherDisplay:10.37,2013-02-02 13:27:00,
2013-02-02 13:32:00,44.1,36.0,29.69,WSW,258,6.3,6.3,73,0.00,BKN,FEW,0.00,WeatherDisplay:10.37,2013-02-02 13:32:00,
2013-02-02 13:37:00,44.1,35.6,29.69,NW,325,8.1,8.1,72,0.00,BKN,FEW,0.00,WeatherDisplay:10.37,2013-02-02 13:37:00,
2013-02-02 13:42:00,44.1,36.0,29.69,WSW,258,2.3,4.8,73,0.00,BKN,FEW,0.00,WeatherDisplay:10.37,2013-02-02 13:42:00,
2013-02-02 13:47:00,44.2,35.4,29.69,NW,325,11.5,11.5,71,0.00,BKN,FEW,0.00,WeatherDisplay:10.37,2013-02-02 13:47:00,
2013-02-02 13:52:00,44.2,35.4,29.69,WSW,258,9.2,9.2,71,0.00,BKN,FEW,0.00,WeatherDisplay:10.37,2013-02-02 13:52:00,
2013-02-02 13:58:00,44.4,35.6,29.69,West,280,5.8,5.8,71,0.00,BKN,FEW,0.00,WeatherDisplay:10.37,2013-02-02 13:58:00,
2013-02-02 14:03:00,44.2,35.4,29.69,WSW,258,3.5,5.0,71,0.00,BKN,FEW,0.00,WeatherDisplay:10.37,2013-02-02 14:03:00,
2013-02-02 14:08:00,44.2,35.4,29.69,WSW,258,4.6,4.6,71,0.00,BKN,FEW,0.00,WeatherDisplay:10.37,2013-02-02 14:08:00,
2013-02-02 14:13:00,44.1,35.3,29.69,WSW,258,7.0,7.0,71,0.00,BKN,FEW,0.00,WeatherDisplay:10.37,2013-02-02 14:13:00,
2013-02-02 14:18:00,43.9,35.1,29.69,WNW,302,5.8,5.8,71,0.00,BKN,FEW,0.00,WeatherDisplay:10.37,2013-02-02 14:18:00,
2013-02-02 14:23:00,43.7,34.9,29.69,WNW,302,7.0,7.0,71,0.00,BKN,FEW,0.00,WeatherDisplay:10.37,2013-02-02 14:23:00,
2013-02-02 14:28:00,44.1,35.3,29.69,WSW,258,6.9,6.9,71,0.00,BKN,FEW,0.00,WeatherDisplay:10.37,2013-02-02 14:28:00,
2013-02-02 14:33:00,44.1,35.3,29.69,WSW,258,8.1,8.1,71,0.00,BKN,FEW,0.00,WeatherDisplay:10.37,2013-02-02 14:33:00,
2013-02-02 14:38:00,44.1,34.9,29.69,NW,325,8.1,8.1,70,0.00,BKN,FEW,0.00,WeatherDisplay:10.37,2013-02-02 14:38:00,
2013-02-02 14:43:00,44.2,35.1,29.69,West,280,3.5,3.9,70,0.00,BKN,FEW,0.00,WeatherDisplay:10.37,2013-02-02 14:43:00,
2013-02-02 14:48:00,44.4,35.2,29.69,WSW,258,8.1,8.1,70,0.00,BKN,FEW,0.00,WeatherDisplay:10.37,2013-02-02 14:48:00,
2013-02-02 14:53:00,44.4,34.9,29.69,West,280,10.4,10.4,69,0.00,BKN,FEW,0.00,WeatherDisplay:10.37,2013-02-02 14:53:00,
2013-02-02 14:58:00,44.4,34.9,29.69,WNW,302,8.1,8.1,69,0.00,BKN,FEW,0.00,WeatherDisplay:10.37,2013-02-02 14:58:00,
2013-02-02 15:03:00,44.8,34.9,29.69,NW,325,5.8,5.8,68,0.00,BKN,FEW,0.00,WeatherDisplay:10.37,2013-02-02 15:03:00,
2013-02-02 15:08:00,44.6,34.7,29.69,WNW,302,6.9,6.9,68,0.00,BKN,FEW,0.00,WeatherDisplay:10.37,2013-02-02 15:08:00,
2013-02-02 15:13:00,44.6,34.7,29.69,WSW,258,3.5,4.1,68,0.00,BKN,FEW,0.00,WeatherDisplay:10.37,2013-02-02 15:13:00,
2013-02-02 15:18:00,44.4,34.5,29.69,WSW,258,8.1,8.1,68,0.00,BKN,FEW,0.00,WeatherDisplay:10.37,2013-02-02 15:18:00,
2013-02-02 15:23:00,44.2,34.3,29.69,NW,325,5.8,5.8,68,0.00,BKN,FEW,0.00,WeatherDisplay:10.37,2013-02-02 15:23:00,
2013-02-02 15:28:00,44.1,34.2,29.69,WSW,258,5.8,5.8,68,0.00,BKN,FEW,0.00,WeatherDisplay:10.37,2013-02-02 15:28:00,
2013-02-02 15:33:00,44.1,34.5,29.69,WSW,258,5.8,5.8,69,0.00,BKN,FEW,0.00,WeatherDisplay:10.37,2013-02-02 15:33:00,
2013-02-02 15:38:00,43.9,34.7,29.69,WSW,258,5.8,5.8,70,0.00,BKN,FEW,0.00,WeatherDisplay:10.37,2013-02-02 15:38:00,
2013-02-02 15:43:00,44.1,34.5,29.69,WSW,258,3.5,3.9,69,0.00,BKN,FEW,0.00,WeatherDisplay:10.37,2013-02-02 15:43:00,
2013-02-02 15:48:00,44.4,34.9,29.69,WSW,258,8.1,8.1,69,0.00,BKN,FEW,0.00,WeatherDisplay:10.37,2013-02-02 15:48:00,
2013-02-02 15:53:00,44.1,34.9,29.69,West,280,4.6,4.6,70,0.00,BKN,FEW,0.00,WeatherDisplay:10.37,2013-02-02 15:53:00,
2013-02-02 15:58:00,44.1,34.9,29.69,WSW,258,4.0,4.0,70,0.00,BKN,FEW,0.00,WeatherDisplay:10.37,2013-02-02 15:58:00,
2013-02-02 16:03:00,43.7,34.6,29.69,WSW,258,5.8,5.8,70,0.00,BKN,FEW,0.00,WeatherDisplay:10.37,2013-02-02 16:03:00,
2013-02-02 16:08:00,43.7,34.6,29.69,NW,325,3.5,3.5,70,0.00,BKN,FEW,0.00,WeatherDisplay:10.37,2013-02-02 16:08:00,
2013-02-02 16:13:00,43.5,34.4,29.69,West,280,4.6,4.6,70,0.00,BKN,FEW,0.00,WeatherDisplay:10.37,2013-02-02 16:13:00,
2013-02-02 16:18:00,43.2,34.4,29.69,NW,325,3.5,3.5,71,0.00,BKN,FEW,0.00,WeatherDisplay:10.37,2013-02-02 16:18:00,
2013-02-02 16:23:00,43.3,34.6,29.69,WSW,258,2.3,3.1,71,0.00,BKN,FEW,0.00,WeatherDisplay:10.37,2013-02-02 16:23:00,
2013-02-02 16:28:00,43.0,34.2,29.69,ESE,122,3.5,3.5,71,0.00,BKN,FEW,0.00,WeatherDisplay:10.37,2013-02-02 16:28:00,
2013-02-02 16:33:00,42.8,34.0,29.69,WSW,258,2.8,2.8,71,0.00,BKN,FEW,0.00,WeatherDisplay:10.37,2013-02-02 16:33:00,
2013-02-02 16:38:00,42.6,34.2,29.69,WSW,258,4.6,4.6,72,0.00,BKN,FEW,0.00,WeatherDisplay:10.37,2013-02-02 16:38:00,
2013-02-02 16:43:00,42.6,34.2,29.69,West,280,5.8,5.8,72,0.00,BKN,FEW,0.00,WeatherDisplay:10.37,2013-02-02 16:43:00,
2013-02-02 16:48:00,42.1,33.7,29.69,WSW,258,3.5,3.5,72,0.00,BKN,FEW,0.00,WeatherDisplay:10.37,2013-02-02 16:48:00,
2013-02-02 16:53:00,42.1,34.0,29.69,WSW,258,3.5,3.5,73,0.00,BKN,FEW,0.00,WeatherDisplay:10.37,2013-02-02 16:53:00,
2013-02-02 16:58:00,41.9,33.9,29.69,WSW,258,5.8,5.8,73,0.00,BKN,FEW,0.00,WeatherDisplay:10.37,2013-02-02 16:58:00,
2013-02-02 17:03:00,41.7,34.0,29.69,WSW,258,5.8,5.8,74,0.00,BKN,FEW,0.00,WeatherDisplay:10.37,2013-02-02 17:03:00,
2013-02-02 17:08:00,41.5,33.9,29.69,WSW,258,2.3,2.4,74,0.00,BKN,FEW,0.00,WeatherDisplay:10.37,2013-02-02 17:08:00,
2013-02-02 17:13:00,41.2,33.5,29.69,WSW,258,4.6,4.6,74,0.00,BKN,FEW,0.00,WeatherDisplay:10.37,2013-02-02 17:13:00,
2013-02-02 17:18:00,40.8,33.5,29.69,WSW,258,4.6,4.6,75,0.00,BKN,FEW,0.00,WeatherDisplay:10.37,2013-02-02 17:18:00,
2013-02-02 17:23:00,40.6,33.3,29.69,WSW,258,4.6,4.6,75,0.00,BKN,FEW,0.00,WeatherDisplay:10.37,2013-02-02 17:23:00,
2013-02-02 17:28:00,40.5,33.5,29.69,ESE,122,2.3,2.3,76,0.00,BKN,FEW,0.00,WeatherDisplay:10.37,2013-02-02 17:28:00,
2013-02-02 17:33:00,39.9,33.0,29.69,SE,145,0.0,1.2,76,0.00,BKN,FEW,0.00,WeatherDisplay:10.37,2013-02-02 17:33:00,
2013-02-02 17:38:00,39.2,32.3,29.69,SE,145,0.0,0.2,76,0.00,BKN,FEW,0.00,WeatherDisplay:10.37,2013-02-02 17:38:00,
2013-02-02 17:43:00,38.7,32.1,29.69,SE,145,1.1,0.0,77,0.00,BKN,FEW,0.00,WeatherDisplay:10.37,2013-02-02 17:43:00,
2013-02-02 17:48:00,38.3,31.7,29.69,WSW,258,2.3,2.3,77,0.00,BKN,FEW,0.00,WeatherDisplay:10.37,2013-02-02 17:48:00,
2013-02-02 17:53:00,38.3,32.0,29.69,WSW,258,2.3,2.3,78,0.00,BKN,FEW,0.00,WeatherDisplay:10.37,2013-02-02 17:53:00,
2013-02-02 17:58:00,37.8,31.8,29.69,SE,145,0.0,0.2,79,0.00,BKN,FEW,0.00,WeatherDisplay:10.37,2013-02-02 17:58:00,
2013-02-02 18:03:00,37.6,31.7,29.69,SE,145,0.0,0.1,79,0.00,BKN,FEW,0.00,WeatherDisplay:10.37,2013-02-02 18:03:00,
2013-02-02 18:08:00,36.9,31.3,29.69,SE,145,1.1,0.0,80,0.00,BKN,FEW,0.00,WeatherDisplay:10.37,2013-02-02 18:08:00,
2013-02-02 18:13:00,36.5,30.9,29.69,SE,145,0.0,0.0,80,0.00,BKN,FEW,0.00,WeatherDisplay:10.37,2013-02-02 18:13:00,
2013-02-02 18:18:00,36.3,31.0,29.69,SE,145,0.0,0.1,81,0.00,BKN,FEW,0.00,WeatherDisplay:10.37,2013-02-02 18:18:00,
2013-02-02 18:23:00,36.0,30.7,29.69,SE,145,0.0,0.1,81,0.00,BKN,FEW,0.00,WeatherDisplay:10.37,2013-02-02 18:23:00,
2013-02-02 18:28:00,35.8,30.8,29.69,SE,145,1.1,1.1,82,0.00,BKN,FEW,0.00,WeatherDisplay:10.37,2013-02-02 18:28:00,
2013-02-02 18:33:00,35.4,30.5,29.69,West,280,0.0,0.1,82,0.00,BKN,FEW,0.00,WeatherDisplay:10.37,2013-02-02 18:33:00,
2013-02-02 18:38:00,35.4,30.8,29.69,WSW,258,0.0,0.1,83,0.00,BKN,FEW,0.00,WeatherDisplay:10.37,2013-02-02 18:38:00,
2013-02-02 18:43:00,35.6,31.2,29.69,West,280,1.1,1.1,84,0.00,BKN,FEW,0.00,WeatherDisplay:10.37,2013-02-02 18:43:00,
2013-02-02 18:48:00,35.8,31.4,29.69,SE,145,1.1,1.1,84,0.00,BKN,FEW,0.00,WeatherDisplay:10.37,2013-02-02 18:48:00,
2013-02-02 18:53:00,35.4,31.1,29.69,SE,145,0.0,0.2,84,0.00,BKN,FEW,0.00,WeatherDisplay:10.37,2013-02-02 18:53:00,
2013-02-02 18:58:00,35.2,30.9,29.69,WSW,258,1.1,1.1,84,0.00,BKN,FEW,0.00,WeatherDisplay:10.37,2013-02-02 18:58:00,
2013-02-02 19:03:00,35.1,31.0,29.69,WSW,258,1.1,1.1,85,0.00,BKN,FEW,0.00,WeatherDisplay:10.37,2013-02-02 19:03:00,
2013-02-02 19:08:00,35.1,31.0,29.69,ESE,122,0.0,0.6,85,0.00,BKN,FEW,0.00,WeatherDisplay:10.37,2013-02-02 19:08:00,
2013-02-02 19:13:00,34.9,30.8,29.69,SE,145,0.0,0.1,85,0.00,BKN,FEW,0.00,WeatherDisplay:10.37,2013-02-02 19:13:00,
2013-02-02 19:19:00,34.9,31.1,29.69,SE,145,0.0,0.1,86,0.00,BKN,FEW,0.00,WeatherDisplay:10.37,2013-02-02 19:19:00,
2013-02-02 19:24:00,34.7,30.9,29.69,SE,145,1.6,1.6,86,0.00,BKN,FEW,0.00,WeatherDisplay:10.37,2013-02-02 19:24:00,
2013-02-02 19:29:00,34.7,30.9,29.69,SE,145,1.4,1.4,86,0.00,BKN,FEW,0.00,WeatherDisplay:10.37,2013-02-02 19:29:00,
2013-02-02 19:34:00,34.7,30.9,29.69,ESE,122,0.0,0.4,86,0.00,BKN,FEW,0.00,WeatherDisplay:10.37,2013-02-02 19:34:00,
2013-02-02 19:39:00,34.7,30.9,29.69,ESE,122,0.0,0.2,86,0.00,BKN,FEW,0.00,WeatherDisplay:10.37,2013-02-02 19:39:00,
2013-02-02 19:44:00,34.3,30.6,29.69,ESE,122,2.3,2.3,86,0.00,BKN,FEW,0.00,WeatherDisplay:10.37,2013-02-02 19:44:00,
2013-02-02 19:49:00,34.3,30.6,29.69,WSW,258,2.3,2.3,86,0.00,BKN,FEW,0.00,WeatherDisplay:10.37,2013-02-02 19:49:00,
2013-02-02 19:54:00,34.7,31.2,29.69,ESE,122,1.1,1.1,87,0.00,BKN,FEW,0.00,WeatherDisplay:10.37,2013-02-02 19:54:00,
2013-02-02 19:59:00,34.5,31.0,29.69,SE,145,0.0,0.2,87,0.00,BKN,FEW,0.00,WeatherDisplay:10.37,2013-02-02 19:59:00,
2013-02-02 20:04:00,34.3,30.9,29.69,SE,145,0.0,0.4,87,0.00,BKN,FEW,0.00,WeatherDisplay:10.37,2013-02-02 20:04:00,
2013-02-02 20:09:00,34.3,30.9,29.69,ESE,122,0.0,0.4,87,0.00,BKN,FEW,0.00,WeatherDisplay:10.37,2013-02-02 20:09:00,
2013-02-02 20:14:00,34.3,30.9,29.69,ESE,122,0.0,0.0,87,0.00,BKN,FEW,0.00,WeatherDisplay:10.37,2013-02-02 20:14:00,
2013-02-02 20:19:00,34.2,30.7,29.69,SE,145,0.0,0.0,87,0.00,BKN,FEW,0.00,WeatherDisplay:10.37,2013-02-02 20:19:00,
2013-02-02 20:24:00,34.0,30.5,29.69,SE,145,0.0,0.1,87,0.00,BKN,FEW,0.00,WeatherDisplay:10.37,2013-02-02 20:24:00,
2013-02-02 20:29:00,34.0,30.5,29.69,SE,145,0.0,0.1,87,0.00,BKN,FEW,0.00,WeatherDisplay:10.37,2013-02-02 20:29:00,
2013-02-02 20:34:00,34.0,30.8,29.69,NNW,348,1.1,1.1,88,0.00,BKN,FEW,0.00,WeatherDisplay:10.37,2013-02-02 20:34:00,
2013-02-02 20:39:00,34.0,30.8,29.69,SE,145,0.0,0.4,88,0.00,BKN,FEW,0.00,WeatherDisplay:10.37,2013-02-02 20:39:00,
2013-02-02 20:44:00,34.2,31.0,29.69,SE,145,0.0,0.4,88,0.00,BKN,FEW,0.00,WeatherDisplay:10.37,2013-02-02 20:44:00,
2013-02-02 20:49:00,34.3,31.2,29.69,ESE,122,1.1,1.1,88,0.00,BKN,FEW,0.00,WeatherDisplay:10.37,2013-02-02 20:49:00,
2013-02-02 20:54:00,34.5,31.3,29.69,West,280,0.0,0.4,88,0.00,BKN,FEW,0.00,WeatherDisplay:10.37,2013-02-02 20:54:00,
2013-02-02 20:59:00,34.7,31.5,29.69,ESE,122,0.0,0.1,88,0.00,BKN,FEW,0.00,WeatherDisplay:10.37,2013-02-02 20:59:00,
2013-02-02 21:04:00,34.9,31.7,29.69,SE,145,1.3,1.3,88,0.00,FEW,,0.00,WeatherDisplay:10.37,2013-02-02 21:04:00,
2013-02-02 21:09:00,35.1,31.9,29.69,SE,145,0.0,0.4,88,0.00,FEW,,0.00,WeatherDisplay:10.37,2013-02-02 21:09:00,
2013-02-02 21:14:00,35.4,32.2,29.69,SE,145,0.0,0.4,88,0.00,FEW,,0.00,WeatherDisplay:10.37,2013-02-02 21:14:00,
2013-02-02 21:19:00,35.2,31.8,29.69,SE,145,1.1,1.1,87,0.00,FEW,,0.00,WeatherDisplay:10.37,2013-02-02 21:19:00,
2013-02-02 21:24:00,35.6,32.1,29.69,SE,145,1.1,1.1,87,0.00,FEW,,0.00,WeatherDisplay:10.37,2013-02-02 21:24:00,
2013-02-02 21:29:00,35.8,32.3,29.69,WSW,258,1.1,1.1,87,0.00,FEW,,0.00,WeatherDisplay:10.37,2013-02-02 21:29:00,
2013-02-02 21:34:00,36.1,32.6,29.69,SE,145,0.0,0.5,87,0.00,FEW,,0.00,WeatherDisplay:10.37,2013-02-02 21:34:00,
2013-02-02 21:39:00,36.3,32.8,29.69,ESE,122,0.0,0.5,87,0.00,FEW,,0.00,WeatherDisplay:10.37,2013-02-02 21:39:00,
2013-02-02 21:44:00,36.5,33.0,29.69,ESE,122,1.1,1.1,87,0.00,FEW,,0.00,WeatherDisplay:10.37,2013-02-02 21:44:00,
2013-02-02 21:49:00,36.9,33.4,29.69,West,280,1.1,1.1,87,0.00,FEW,,0.00,WeatherDisplay:10.37,2013-02-02 21:49:00,
2013-02-02 21:54:00,37.0,33.5,29.69,ESE,122,1.1,1.1,87,0.00,FEW,,0.00,WeatherDisplay:10.37,2013-02-02 21:54:00,
2013-02-02 21:59:00,37.2,33.4,29.69,ESE,122,0.0,0.7,86,0.00,FEW,,0.00,WeatherDisplay:10.37,2013-02-02 21:59:00,
2013-02-02 22:04:00,37.6,33.8,29.69,ESE,122,2.3,2.3,86,0.00,BKN,FEW,0.00,WeatherDisplay:10.37,2013-02-02 22:04:00,
2013-02-02 22:09:00,37.6,33.8,29.69,SE,145,0.0,1.0,86,0.00,BKN,FEW,0.00,WeatherDisplay:10.37,2013-02-02 22:09:00,
2013-02-02 22:14:00,37.8,33.9,29.69,SE,145,1.3,1.3,86,0.00,BKN,FEW,0.00,WeatherDisplay:10.37,2013-02-02 22:14:00,
2013-02-02 22:19:00,37.9,33.8,29.69,SE,145,3.5,3.5,85,0.00,BKN,FEW,0.00,WeatherDisplay:10.37,2013-02-02 22:19:00,
2013-02-02 22:24:00,38.3,34.2,29.69,ESE,122,2.3,2.3,85,0.00,BKN,FEW,0.00,WeatherDisplay:10.37,2013-02-02 22:24:00,
2013-02-02 22:29:00,38.7,34.5,29.69,ESE,122,4.6,4.6,85,0.00,BKN,FEW,0.00,WeatherDisplay:10.37,2013-02-02 22:29:00,
2013-02-02 22:34:00,39.0,34.9,29.69,SE,145,6.9,6.9,85,0.00,BKN,FEW,0.00,WeatherDisplay:10.37,2013-02-02 22:34:00,
2013-02-02 22:39:00,39.2,34.8,29.69,SE,145,2.3,2.9,84,0.00,BKN,FEW,0.00,WeatherDisplay:10.37,2013-02-02 22:39:00,
2013-02-02 22:44:00,39.2,34.8,29.69,ESE,122,1.1,2.3,84,0.00,BKN,FEW,0.00,WeatherDisplay:10.37,2013-02-02 22:44:00,
2013-02-02 22:49:00,39.4,34.9,29.69,WSW,258,6.9,6.9,84,0.00,BKN,FEW,0.00,WeatherDisplay:10.37,2013-02-02 22:49:00,
2013-02-02 22:54:00,39.6,35.1,29.69,West,280,2.3,3.0,84,0.00,BKN,FEW,0.00,WeatherDisplay:10.37,2013-02-02 22:54:00,
2013-02-02 22:59:00,39.7,35.0,29.69,ESE,122,4.6,4.6,83,0.00,BKN,FEW,0.00,WeatherDisplay:10.37,2013-02-02 22:59:00,
2013-02-02 23:04:00,39.9,35.2,29.69,ESE,122,5.8,5.8,83,0.00,BKN,FEW,0.00,WeatherDisplay:10.37,2013-02-02 23:04:00,
2013-02-02 23:09:00,40.5,35.7,29.69,SE,145,3.5,3.5,83,0.00,BKN,FEW,0.00,WeatherDisplay:10.37,2013-02-02 23:09:00,
2013-02-02 23:14:00,40.5,35.7,29.69,ESE,122,2.3,2.8,83,0.00,BKN,FEW,0.00,WeatherDisplay:10.37,2013-02-02 23:14:00,
2013-02-02 23:19:00,40.5,35.7,29.69,SE,145,5.8,5.8,83,0.00,BKN,FEW,0.00,WeatherDisplay:10.37,2013-02-02 23:19:00,
2013-02-02 23:24:00,40.5,35.7,29.69,ESE,122,3.5,3.5,83,0.00,BKN,FEW,0.00,WeatherDisplay:10.37,2013-02-02 23:24:00,
2013-02-02 23:29:00,40.5,35.7,29.69,SE,145,5.8,5.8,83,0.00,BKN,FEW,0.00,WeatherDisplay:10.37,2013-02-02 23:29:00,
2013-02-02 23:34:00,40.6,35.9,29.69,ESE,122,6.9,6.9,83,0.00,BKN,FEW,0.00,WeatherDisplay:10.37,2013-02-02 23:34:00,
2013-02-02 23:39:00,40.8,36.4,29.69,ESE,122,8.1,8.1,84,0.00,BKN,FEW,0.00,WeatherDisplay:10.37,2013-02-02 23:39:00,
2013-02-02 23:44:00,40.8,36.4,29.69,WSW,258,3.5,3.5,84,0.00,BKN,FEW,0.00,WeatherDisplay:10.37,2013-02-02 23:44:00,
2013-02-02 23:49:00,40.8,36.4,29.69,WSW,258,4.6,4.6,84,0.00,BKN,FEW,0.00,WeatherDisplay:10.37,2013-02-02 23:49:00,
2013-02-02 23:54:00,41.2,36.7,29.69,SE,145,3.5,3.5,84,0.00,BKN,FEW,0.00,WeatherDisplay:10.37,2013-02-02 23:54:00,
2013-02-02 23:59:00,41.2,37.0,29.69,SW,235,4.6,4.6,85,0.00,BKN,FEW,0.00,WeatherDisplay:10.37,2013-02-02 23:59:00,